createdAt,value
2022-08-23T00:02:17.683Z,17.70
2022-08-23T00:07:20.375Z,17.70
2022-08-23T00:12:21.030Z,17.70
2022-08-23T00:17:33.529Z,17.60
2022-08-23T00:22:27.158Z,17.60
2022-08-23T00:27:19.383Z,17.70
2022-08-23T00:32:15.800Z,17.70
2022-08-23T00:37:09.507Z,17.70
2022-08-23T00:42:32.468Z,17.70
2022-08-23T00:47:41.598Z,17.70
2022-08-23T00:52:42.482Z,17.70
2022-08-23T00:57:37.358Z,17.70
2022-08-23T01:02:29.930Z,17.80
2022-08-23T01:07:54.711Z,17.80
2022-08-23T01:12:54.401Z,17.80
2022-08-23T01:18:00.250Z,17.70
2022-08-23T01:23:07.425Z,17.70
2022-08-23T01:28:01.099Z,17.70
2022-08-23T01:32:57.059Z,17.70
2022-08-23T01:37:49.325Z,17.70
2022-08-23T01:42:42.523Z,17.80
2022-08-23T01:48:33.675Z,17.80
2022-08-23T01:54:40.855Z,17.80
2022-08-23T02:00:48.142Z,17.80
2022-08-23T02:06:56.232Z,17.90
2022-08-23T02:13:03.491Z,17.80
2022-08-23T02:19:10.537Z,17.80
2022-08-23T02:25:19.078Z,17.80
2022-08-23T02:31:27.288Z,17.80
2022-08-23T02:37:35.721Z,17.80
2022-08-23T02:43:42.814Z,17.80
2022-08-23T02:49:50.123Z,17.80
2022-08-23T02:55:57.079Z,17.80
2022-08-23T03:02:05.198Z,17.80
2022-08-23T03:08:12.520Z,17.80
2022-08-23T03:14:19.646Z,17.70
2022-08-23T03:20:26.698Z,17.70
2022-08-23T03:26:33.689Z,17.70
2022-08-23T03:32:40.712Z,17.70
2022-08-23T03:38:56.185Z,17.70
2022-08-23T03:44:50.537Z,17.60
2022-08-23T03:49:52.151Z,17.60
2022-08-23T03:54:44.653Z,17.50
2022-08-23T03:59:41.581Z,17.50
2022-08-23T04:04:36.985Z,17.60
2022-08-23T04:10:01.781Z,17.70
2022-08-23T04:15:02.384Z,17.70
2022-08-23T04:19:56.947Z,17.70
2022-08-23T04:24:49.833Z,17.70
2022-08-23T04:29:42.309Z,17.70
2022-08-23T04:35:32.227Z,17.70
2022-08-23T04:41:39.222Z,17.70
2022-08-23T04:47:46.550Z,17.80
2022-08-23T04:53:53.741Z,17.90
2022-08-23T05:00:00.849Z,17.90
2022-08-23T05:06:07.782Z,18.10
2022-08-23T05:12:15.216Z,18.10
2022-08-23T05:18:23.327Z,18.20
2022-08-23T05:24:31.332Z,18.40
2022-08-23T05:30:38.324Z,18.50
2022-08-23T05:36:48.435Z,18.60
2022-08-23T05:43:03.063Z,18.70
2022-08-23T05:49:10.625Z,18.90
2022-08-23T05:55:17.144Z,18.90
2022-08-23T06:01:24.005Z,18.90
2022-08-23T06:07:31.116Z,19.00
2022-08-23T06:13:38.419Z,18.90
2022-08-23T06:19:45.572Z,18.90
2022-08-23T06:25:53.035Z,19.10
2022-08-23T06:32:00.215Z,19.40
2022-08-23T06:37:15.138Z,19.50
2022-08-23T06:42:41.257Z,19.60
2022-08-23T06:47:35.443Z,19.70
2022-08-23T06:52:28.604Z,19.60
2022-08-23T06:57:43.619Z,19.60
2022-08-23T07:03:00.468Z,19.60
2022-08-23T07:08:11.360Z,19.60
2022-08-23T07:13:04.358Z,19.80
2022-08-23T07:17:56.635Z,20.10
2022-08-23T07:22:50.425Z,20.10
2022-08-23T07:27:43.230Z,20.20
2022-08-23T07:32:35.679Z,20.10
2022-08-23T07:37:43.994Z,20.20
2022-08-23T07:42:37.559Z,20.50
2022-08-23T07:47:32.005Z,20.90
2022-08-23T07:52:25.487Z,21.20
2022-08-23T07:57:20.115Z,21.30
2022-08-23T08:02:20.142Z,21.50
2022-08-23T08:07:21.126Z,21.30
2022-08-23T08:12:22.140Z,21.40
2022-08-23T08:17:25.426Z,21.30
2022-08-23T08:22:37.806Z,21.30
2022-08-23T08:27:50.318Z,21.40
2022-08-23T08:32:47.209Z,21.60
2022-08-23T08:37:39.960Z,21.40
2022-08-23T08:43:09.286Z,21.20
2022-08-23T08:48:13.411Z,21.60
2022-08-23T08:53:16.917Z,22.30
2022-08-23T08:58:55.910Z,23.10
2022-08-23T09:03:48.689Z,23.60
2022-08-23T09:09:02.176Z,24.00
2022-08-23T09:14:08.825Z,24.10
2022-08-23T09:19:03.750Z,24.30
2022-08-23T09:23:58.793Z,24.30
2022-08-23T09:29:28.132Z,24.10
2022-08-23T09:34:38.558Z,23.80
2022-08-23T09:39:38.620Z,23.80
2022-08-23T09:44:41.136Z,23.80
2022-08-23T09:49:37.292Z,24.00
2022-08-23T09:54:36.295Z,24.10
2022-08-23T09:59:46.036Z,24.00
2022-08-23T10:04:47.709Z,23.90
2022-08-23T10:09:41.226Z,23.80
2022-08-23T10:14:33.956Z,23.60
2022-08-23T10:20:09.067Z,23.40
2022-08-23T10:25:14.820Z,23.60
2022-08-23T10:30:17.482Z,23.80
2022-08-23T10:35:43.355Z,23.90
2022-08-23T10:41:00.167Z,24.30
2022-08-23T10:46:00.391Z,24.30
2022-08-23T10:51:23.268Z,24.00
2022-08-23T10:56:25.092Z,24.00
2022-08-23T11:01:29.441Z,24.00
2022-08-23T11:06:25.721Z,23.80
2022-08-23T11:11:40.940Z,23.40
2022-08-23T11:16:34.846Z,23.10
2022-08-23T11:21:33.487Z,22.90
2022-08-23T11:26:38.216Z,22.80
2022-08-23T11:31:37.991Z,22.80
2022-08-23T11:36:31.940Z,23.00
2022-08-23T11:41:56.637Z,23.10
2022-08-23T11:46:54.621Z,23.40
2022-08-23T11:52:31.575Z,23.80
2022-08-23T11:57:50.410Z,24.20
2022-08-23T12:02:53.154Z,24.30
2022-08-23T12:07:50.981Z,24.10
2022-08-23T12:12:47.114Z,24.00
2022-08-23T12:17:42.790Z,23.90
2022-08-23T12:22:53.168Z,23.40
2022-08-23T12:27:50.397Z,23.20
2022-08-23T12:32:45.615Z,23.20
2022-08-23T12:37:47.907Z,23.30
2022-08-23T12:42:41.461Z,23.40
2022-08-23T12:47:34.304Z,23.40
2022-08-23T12:52:31.736Z,23.40
2022-08-23T12:57:39.857Z,23.40
2022-08-23T13:02:34.420Z,23.40
2022-08-23T13:07:27.032Z,23.10
2022-08-23T13:12:19.906Z,23.00
2022-08-23T13:17:27.435Z,23.00
2022-08-23T13:22:19.689Z,23.10
2022-08-23T13:27:22.682Z,23.30
2022-08-23T13:32:35.552Z,23.40
2022-08-23T13:37:31.009Z,23.00
2022-08-23T13:42:42.900Z,23.00
2022-08-23T13:47:37.712Z,23.20
2022-08-23T13:57:43.582Z,23.60
2022-08-23T14:02:37.349Z,23.80
2022-08-23T14:07:29.667Z,23.90
2022-08-23T14:12:27.581Z,23.70
2022-08-23T14:17:23.954Z,23.70
2022-08-23T14:22:17.878Z,23.60
2022-08-23T14:27:11.242Z,23.70
2022-08-23T14:32:04.639Z,23.80
2022-08-23T14:42:13.411Z,23.80
2022-08-23T14:47:07.018Z,23.80
2022-08-23T14:51:59.787Z,23.80
2022-08-23T14:56:54.085Z,24.00
2022-08-23T15:01:49.237Z,24.20
2022-08-23T15:07:00.412Z,24.60
2022-08-23T15:17:08.546Z,25.00
2022-08-23T15:22:06.519Z,25.00
2022-08-23T15:27:12.451Z,24.90
2022-08-23T15:32:04.975Z,24.80
2022-08-23T15:36:59.983Z,24.80
2022-08-23T15:41:52.309Z,24.60
2022-08-23T15:46:48.433Z,24.30
2022-08-23T15:51:42.007Z,24.00
2022-08-23T15:56:54.867Z,23.80
2022-08-23T16:01:47.450Z,23.70
2022-08-23T16:06:40.444Z,23.80
2022-08-23T16:11:32.841Z,24.00
2022-08-23T16:16:31.628Z,24.20
2022-08-23T16:21:27.014Z,24.30
2022-08-23T16:26:22.767Z,24.20
2022-08-23T16:31:38.440Z,24.00
2022-08-23T16:36:31.507Z,23.90
2022-08-23T16:41:24.110Z,23.50
2022-08-23T16:46:20.755Z,23.20
2022-08-23T16:51:13.120Z,22.90
2022-08-23T16:56:07.119Z,22.70
2022-08-23T17:00:59.497Z,22.80
2022-08-23T17:05:52.059Z,22.80
2022-08-23T17:10:45.201Z,22.70
2022-08-23T17:15:38.257Z,22.70
2022-08-23T17:20:33.482Z,22.50
2022-08-23T17:25:26.805Z,22.40
2022-08-23T17:30:21.850Z,22.30
2022-08-23T17:35:21.777Z,22.20
2022-08-23T17:40:21.334Z,22.10
2022-08-23T17:45:14.318Z,21.90
2022-08-23T17:50:08.660Z,21.70
2022-08-23T17:55:01.456Z,21.50
2022-08-23T17:59:55.108Z,21.40
2022-08-23T18:04:48.253Z,21.30
2022-08-23T18:09:48.638Z,21.20
2022-08-23T18:14:41.482Z,21.10
2022-08-23T18:19:34.049Z,21.00
2022-08-23T18:24:26.772Z,20.90
2022-08-23T18:29:19.335Z,20.90
2022-08-23T18:34:13.538Z,20.80
2022-08-23T18:39:07.910Z,20.70
2022-08-23T18:44:03.571Z,20.70
2022-08-23T18:48:59.626Z,20.70
2022-08-23T18:53:54.261Z,20.80
2022-08-23T18:58:48.251Z,20.90
2022-08-23T19:03:40.546Z,20.90
2022-08-23T19:08:33.271Z,20.90
2022-08-23T19:13:29.241Z,20.90
2022-08-23T19:18:21.760Z,20.90
2022-08-23T19:23:14.452Z,20.90
2022-08-23T19:28:07.052Z,20.90
2022-08-23T19:32:59.882Z,20.80
2022-08-23T19:37:52.639Z,20.80
2022-08-23T19:42:45.260Z,20.80
2022-08-23T19:47:37.811Z,20.80
2022-08-23T19:52:30.253Z,20.80
2022-08-23T19:57:23.229Z,20.90
2022-08-23T20:02:15.559Z,20.90
2022-08-23T20:07:07.924Z,20.80
2022-08-23T20:12:01.296Z,20.80
2022-08-23T20:16:54.536Z,20.80
2022-08-23T20:21:47.107Z,20.80
2022-08-23T20:26:47.717Z,20.70
2022-08-23T20:31:49.355Z,20.70
2022-08-23T20:36:41.559Z,20.60
2022-08-23T20:41:36.033Z,20.60
2022-08-23T20:46:29.190Z,20.60
2022-08-23T20:51:22.763Z,20.60
2022-08-23T20:56:16.216Z,20.70
2022-08-23T21:01:10.183Z,20.60
2022-08-23T21:06:09.255Z,20.50
2022-08-23T21:11:01.937Z,20.50
2022-08-23T21:15:56.046Z,20.50
2022-08-23T21:20:48.453Z,20.50
2022-08-23T21:25:41.567Z,20.40
2022-08-23T21:30:34.064Z,20.40
2022-08-23T21:35:27.295Z,20.30
2022-08-23T21:40:19.655Z,20.20
2022-08-23T21:45:12.142Z,20.10
2022-08-23T21:51:00.763Z,20.10
2022-08-23T21:57:10.180Z,20.00
2022-08-23T22:03:17.334Z,20.00
2022-08-23T22:09:25.706Z,20.00
2022-08-23T22:15:38.386Z,20.10
2022-08-23T22:21:45.367Z,20.00
2022-08-23T22:27:53.629Z,19.90
2022-08-23T22:34:00.881Z,19.90
2022-08-23T22:40:09.162Z,19.80
2022-08-23T22:46:17.412Z,19.80
2022-08-23T22:52:24.393Z,19.80
2022-08-23T22:58:31.869Z,19.80
2022-08-23T23:04:40.191Z,19.80
2022-08-23T23:10:47.449Z,19.70
2022-08-23T23:16:54.678Z,19.70
2022-08-23T23:23:02.358Z,19.60
2022-08-23T23:29:09.343Z,19.50
2022-08-23T23:35:19.168Z,19.50
2022-08-23T23:41:27.149Z,19.50
2022-08-23T23:46:38.184Z,19.50
2022-08-23T23:51:32.834Z,19.60
2022-08-23T23:56:26.432Z,19.60
